createdAt,value
2017-11-21T00:00:26.938Z,6.70
2017-11-21T00:02:52.900Z,6.70
2017-11-21T00:05:18.821Z,6.70
2017-11-21T00:07:44.760Z,6.70
2017-11-21T00:10:10.671Z,6.70
2017-11-21T00:12:36.600Z,6.70
2017-11-21T00:15:02.509Z,6.70
2017-11-21T00:17:28.436Z,6.80
2017-11-21T00:19:54.356Z,6.80
2017-11-21T00:22:31.284Z,6.80
2017-11-21T00:24:57.302Z,6.80
2017-11-21T00:27:23.225Z,6.80
2017-11-21T00:29:49.145Z,6.80
2017-11-21T00:32:15.100Z,6.80
2017-11-21T00:34:41.025Z,6.80
2017-11-21T00:37:06.939Z,6.80
2017-11-21T00:39:32.844Z,6.80
2017-11-21T00:41:58.760Z,6.80
2017-11-21T00:44:24.684Z,6.80
2017-11-21T00:46:50.636Z,6.90
2017-11-21T00:49:16.544Z,6.80
2017-11-21T00:51:42.482Z,6.90
2017-11-21T00:54:08.399Z,6.90
2017-11-21T00:56:34.507Z,6.90
2017-11-21T00:59:00.423Z,6.90
2017-11-21T01:01:26.386Z,6.90
2017-11-21T01:03:53.128Z,7.00
2017-11-21T01:06:19.797Z,6.90
2017-11-21T01:08:45.758Z,6.90
2017-11-21T01:11:11.703Z,6.90
2017-11-21T01:13:38.382Z,7.00
2017-11-21T01:16:04.323Z,7.00
2017-11-21T01:18:30.275Z,7.00
2017-11-21T01:20:56.234Z,7.00
2017-11-21T01:23:22.175Z,7.00
2017-11-21T01:25:48.088Z,7.10
2017-11-21T01:28:14.773Z,7.10
2017-11-21T01:30:40.673Z,7.00
2017-11-21T01:33:06.588Z,7.00
2017-11-21T01:35:32.529Z,7.10
2017-11-21T01:37:58.433Z,7.10
2017-11-21T01:40:24.351Z,7.00
2017-11-21T01:42:50.292Z,7.10
2017-11-21T01:45:16.230Z,7.10
2017-11-21T01:47:42.953Z,7.10
2017-11-21T01:50:09.618Z,7.20
2017-11-21T01:52:35.528Z,7.10
2017-11-21T01:55:02.196Z,7.20
2017-11-21T01:57:28.116Z,7.20
2017-11-21T01:59:54.040Z,7.30
2017-11-21T02:02:19.959Z,7.30
2017-11-21T02:04:45.906Z,7.30
2017-11-21T02:07:11.814Z,7.30
2017-11-21T02:09:37.753Z,7.30
2017-11-21T02:12:03.652Z,7.30
2017-11-21T02:14:29.534Z,7.30
2017-11-21T02:16:55.538Z,7.30
2017-11-21T02:19:21.412Z,7.30
2017-11-21T02:21:47.352Z,7.30
2017-11-21T02:24:13.299Z,7.30
2017-11-21T02:26:39.991Z,7.20
2017-11-21T02:29:05.893Z,7.20
2017-11-21T02:31:31.808Z,7.20
2017-11-21T02:33:57.803Z,7.20
2017-11-21T02:36:23.714Z,7.20
2017-11-21T02:38:50.386Z,7.30
2017-11-21T02:41:16.307Z,7.20
2017-11-21T02:43:42.209Z,7.30
2017-11-21T02:46:08.903Z,7.30
2017-11-21T02:48:34.833Z,7.30
2017-11-21T02:51:00.761Z,7.40
2017-11-21T02:53:26.746Z,7.40
2017-11-21T02:55:52.676Z,7.40
2017-11-21T02:58:18.614Z,7.40
2017-11-21T03:00:44.543Z,7.50
2017-11-21T03:03:10.464Z,7.50
2017-11-21T03:05:36.393Z,7.50
2017-11-21T03:08:02.294Z,7.50
2017-11-21T03:10:28.220Z,7.50
2017-11-21T03:12:54.143Z,7.50
2017-11-21T03:15:20.058Z,7.50
2017-11-21T03:17:45.947Z,7.50
2017-11-21T03:20:32.944Z,7.50
2017-11-21T03:23:11.120Z,7.60
2017-11-21T03:25:50.198Z,7.70
2017-11-21T03:28:16.168Z,7.60
2017-11-21T03:30:42.854Z,7.70
2017-11-21T03:33:08.787Z,7.70
2017-11-21T03:35:34.753Z,7.80
2017-11-21T03:38:01.423Z,7.80
2017-11-21T03:40:27.404Z,7.70
2017-11-21T03:42:53.327Z,7.70
2017-11-21T03:45:19.961Z,7.80
2017-11-21T03:47:47.509Z,7.70
2017-11-21T03:50:13.463Z,7.70
2017-11-21T03:52:44.264Z,7.80
2017-11-21T03:55:12.733Z,7.70
2017-11-21T03:57:38.680Z,7.80
2017-11-21T04:00:05.756Z,7.90
2017-11-21T04:02:31.693Z,7.80
2017-11-21T04:04:57.959Z,7.80
2017-11-21T04:07:23.895Z,7.80
2017-11-21T04:09:52.072Z,7.80
2017-11-21T04:12:18.005Z,7.80
2017-11-21T04:14:43.921Z,7.80
2017-11-21T04:17:09.909Z,7.80
2017-11-21T04:19:35.835Z,7.80
2017-11-21T04:22:01.880Z,7.90
2017-11-21T04:24:27.801Z,7.80
2017-11-21T04:26:54.463Z,7.90
2017-11-21T04:29:20.375Z,7.90
2017-11-21T04:31:46.304Z,7.90
2017-11-21T04:34:12.344Z,7.90
2017-11-21T04:36:38.298Z,7.90
2017-11-21T04:39:04.417Z,8.00
2017-11-21T04:41:30.402Z,7.90
2017-11-21T04:43:56.368Z,7.90
2017-11-21T04:46:22.312Z,7.90
2017-11-21T04:48:48.963Z,7.80
2017-11-21T04:51:14.859Z,7.80
2017-11-21T04:53:40.760Z,7.80
2017-11-21T04:56:06.696Z,7.80
2017-11-21T04:58:32.629Z,7.80
2017-11-21T05:00:58.533Z,7.70
2017-11-21T05:03:24.417Z,7.70
2017-11-21T05:05:50.345Z,7.70
2017-11-21T05:08:16.252Z,7.70
2017-11-21T05:10:42.167Z,7.70
2017-11-21T05:13:08.096Z,7.70
2017-11-21T05:15:34.041Z,7.70
2017-11-21T05:18:00.005Z,7.80
2017-11-21T05:20:26.676Z,7.80
2017-11-21T05:22:58.678Z,7.70
2017-11-21T05:25:28.957Z,7.80
2017-11-21T05:27:54.949Z,7.90
2017-11-21T05:30:20.842Z,7.90
2017-11-21T05:32:59.047Z,8.00
2017-11-21T05:35:25.013Z,7.90
2017-11-21T05:37:50.947Z,8.00
2017-11-21T05:40:17.003Z,8.00
2017-11-21T05:42:42.912Z,8.00
2017-11-21T05:45:08.831Z,8.00
2017-11-21T05:47:34.732Z,8.10
2017-11-21T05:50:00.660Z,8.10
2017-11-21T05:52:26.596Z,8.10
2017-11-21T05:54:52.569Z,8.20
2017-11-21T05:57:18.520Z,8.20
2017-11-21T05:59:44.489Z,8.20
2017-11-21T06:02:10.498Z,8.20
2017-11-21T06:04:36.468Z,8.20
2017-11-21T06:07:02.428Z,8.20
2017-11-21T06:09:28.371Z,8.20
2017-11-21T06:11:54.322Z,8.20
2017-11-21T06:14:20.306Z,8.20
2017-11-21T06:16:46.229Z,8.20
2017-11-21T06:19:12.165Z,8.20
2017-11-21T06:21:38.111Z,8.20
2017-11-21T06:24:04.546Z,8.20
2017-11-21T06:26:30.537Z,8.20
2017-11-21T06:28:56.432Z,8.20
2017-11-21T06:31:22.367Z,8.20
2017-11-21T06:33:48.312Z,8.20
2017-11-21T06:36:14.242Z,8.20
2017-11-21T06:38:40.200Z,8.20
2017-11-21T06:41:06.181Z,8.10
2017-11-21T06:43:32.088Z,8.20
2017-11-21T06:45:58.025Z,8.30
2017-11-21T06:48:23.924Z,8.30
2017-11-21T06:50:49.866Z,8.30
2017-11-21T06:53:15.804Z,8.30
2017-11-21T06:55:41.702Z,8.30
2017-11-21T06:58:07.680Z,8.30
2017-11-21T07:00:33.667Z,8.20
2017-11-21T07:02:59.636Z,8.30
2017-11-21T07:05:25.643Z,8.30
2017-11-21T07:07:51.559Z,8.40
2017-11-21T07:10:17.539Z,8.40
2017-11-21T07:12:43.454Z,8.40
2017-11-21T07:15:09.380Z,8.40
2017-11-21T07:17:35.296Z,8.40
2017-11-21T07:20:01.223Z,8.40
2017-11-21T07:22:27.116Z,8.50
2017-11-21T07:24:53.053Z,8.50
2017-11-21T07:27:18.949Z,8.50
2017-11-21T07:29:44.852Z,8.50
2017-11-21T07:32:10.833Z,8.50
2017-11-21T07:34:36.788Z,8.60
2017-11-21T07:37:02.705Z,8.60
2017-11-21T07:39:29.495Z,8.60
2017-11-21T07:41:55.649Z,8.60
2017-11-21T07:44:21.626Z,8.60
2017-11-21T07:46:48.360Z,8.60
2017-11-21T07:49:14.263Z,8.60
2017-11-21T07:51:40.184Z,8.70
2017-11-21T07:54:06.108Z,8.70
2017-11-21T07:56:32.021Z,8.70
2017-11-21T07:58:57.960Z,8.70
2017-11-21T08:01:24.660Z,8.70
2017-11-21T08:03:52.584Z,8.60
2017-11-21T08:06:18.501Z,8.70
2017-11-21T08:08:44.447Z,8.70
2017-11-21T08:11:10.400Z,8.70
2017-11-21T08:13:36.383Z,8.80
2017-11-21T08:16:02.324Z,8.70
2017-11-21T08:18:28.260Z,8.80
2017-11-21T08:20:54.195Z,8.80
2017-11-21T08:23:20.101Z,8.70
2017-11-21T08:25:46.116Z,8.70
2017-11-21T08:28:12.021Z,8.70
2017-11-21T08:30:37.968Z,8.70
2017-11-21T08:33:03.880Z,8.70
2017-11-21T08:35:29.878Z,8.70
2017-11-21T08:37:55.777Z,8.70
2017-11-21T08:40:21.737Z,8.70
2017-11-21T08:42:47.685Z,8.70
2017-11-21T08:45:13.701Z,8.70
2017-11-21T08:47:39.637Z,8.70
2017-11-21T08:50:05.604Z,8.60
2017-11-21T08:52:32.509Z,8.60
2017-11-21T08:54:58.419Z,8.60
2017-11-21T08:57:24.327Z,8.60
2017-11-21T08:59:50.260Z,8.60
2017-11-21T09:02:16.200Z,8.60
2017-11-21T09:04:42.860Z,8.50
2017-11-21T09:07:08.850Z,8.50
2017-11-21T09:09:35.517Z,8.50
2017-11-21T09:12:01.497Z,8.40
2017-11-21T09:14:27.420Z,8.40
2017-11-21T09:16:53.332Z,8.40
2017-11-21T09:19:19.256Z,8.40
2017-11-21T09:21:45.276Z,8.30
2017-11-21T09:24:11.202Z,8.30
2017-11-21T09:26:37.158Z,8.30
2017-11-21T09:29:03.995Z,8.30
2017-11-21T09:31:29.924Z,8.30
2017-11-21T09:33:55.840Z,8.20
2017-11-21T09:36:21.782Z,8.20
2017-11-21T09:38:47.742Z,8.30
2017-11-21T09:41:13.686Z,8.30
2017-11-21T09:43:40.337Z,8.30
2017-11-21T09:46:06.280Z,8.30
2017-11-21T09:48:32.194Z,8.30
2017-11-21T09:50:58.881Z,8.30
2017-11-21T09:53:24.912Z,8.40
2017-11-21T09:55:50.866Z,8.40
2017-11-21T09:58:16.840Z,8.40
2017-11-21T10:00:42.855Z,8.30
2017-11-21T10:03:08.807Z,8.30
2017-11-21T10:05:35.753Z,8.30
2017-11-21T10:08:02.442Z,8.30
2017-11-21T10:10:28.397Z,8.20
2017-11-21T10:12:54.347Z,8.30
2017-11-21T10:15:20.249Z,8.40
2017-11-21T10:17:46.215Z,8.30
2017-11-21T10:20:12.139Z,8.40
2017-11-21T10:22:38.172Z,8.30
2017-11-21T10:25:04.744Z,8.30
2017-11-21T10:27:30.692Z,8.30
2017-11-21T10:29:57.471Z,8.40
2017-11-21T10:32:23.420Z,8.40
2017-11-21T10:34:49.350Z,8.40
2017-11-21T10:37:15.328Z,8.30
2017-11-21T10:39:41.225Z,8.30
2017-11-21T10:42:07.157Z,8.30
2017-11-21T10:44:33.119Z,8.30
2017-11-21T10:46:59.074Z,8.30
2017-11-21T10:49:25.002Z,8.30
2017-11-21T10:51:50.937Z,8.30
2017-11-21T10:54:16.860Z,8.30
2017-11-21T10:56:42.896Z,8.40
2017-11-21T10:59:08.867Z,8.40
2017-11-21T11:01:35.575Z,8.40
2017-11-21T11:04:01.590Z,8.30
2017-11-21T11:06:27.513Z,8.30
2017-11-21T11:08:53.432Z,8.30
2017-11-21T11:11:19.404Z,8.30
2017-11-21T11:13:45.309Z,8.20
2017-11-21T11:16:11.219Z,8.30
2017-11-21T11:18:37.136Z,8.30
2017-11-21T11:21:03.082Z,8.20
2017-11-21T11:23:29.021Z,8.20
2017-11-21T11:25:55.020Z,8.20
2017-11-21T11:28:20.943Z,8.20
2017-11-21T11:30:47.622Z,8.30
2017-11-21T11:33:13.530Z,8.30
2017-11-21T11:35:39.473Z,8.30
2017-11-21T11:38:05.378Z,8.30
2017-11-21T11:40:31.282Z,8.30
2017-11-21T11:42:57.983Z,8.30
2017-11-21T11:45:23.932Z,8.20
2017-11-21T11:47:49.832Z,8.30
2017-11-21T11:50:15.770Z,8.30
2017-11-21T11:52:41.667Z,8.30
2017-11-21T11:55:07.611Z,8.30
2017-11-21T11:57:33.600Z,8.30
2017-11-21T12:00:00.493Z,8.30
2017-11-21T12:02:26.959Z,8.30
2017-11-21T12:04:52.915Z,8.30
2017-11-21T12:07:18.837Z,8.30
2017-11-21T12:09:45.481Z,8.40
2017-11-21T12:12:11.397Z,8.40
2017-11-21T12:14:37.307Z,8.40
2017-11-21T12:17:03.218Z,8.30
2017-11-21T12:19:29.163Z,8.40
2017-11-21T12:21:55.061Z,8.40
2017-11-21T12:24:21.753Z,8.40
2017-11-21T12:26:47.687Z,8.40
2017-11-21T12:29:13.601Z,8.50
2017-11-21T12:31:40.084Z,8.50
2017-11-21T12:34:06.045Z,8.50
2017-11-21T12:36:32.727Z,8.50
2017-11-21T12:38:58.636Z,8.50
2017-11-21T12:41:25.448Z,8.60
2017-11-21T12:43:51.345Z,8.60
2017-11-21T12:46:18.036Z,8.60
2017-11-21T12:48:43.980Z,8.60
2017-11-21T12:51:09.900Z,8.60
2017-11-21T12:53:36.590Z,8.60
2017-11-21T12:56:02.584Z,8.60
2017-11-21T12:58:28.781Z,8.60
2017-11-21T13:00:55.436Z,8.60
2017-11-21T13:03:21.364Z,8.50
2017-11-21T13:05:47.349Z,8.60
2017-11-21T13:08:13.256Z,8.50
2017-11-21T13:10:39.210Z,8.60
2017-11-21T13:13:05.981Z,8.60
2017-11-21T13:15:31.893Z,8.60
2017-11-21T13:17:57.782Z,8.60
2017-11-21T13:20:24.393Z,8.60
2017-11-21T13:22:50.403Z,8.60
2017-11-21T13:25:16.333Z,8.60
2017-11-21T13:27:42.364Z,8.70
2017-11-21T13:30:08.467Z,8.70
2017-11-21T13:32:34.415Z,8.80
2017-11-21T13:35:00.329Z,8.70
2017-11-21T13:37:26.211Z,8.80
2017-11-21T13:39:52.114Z,8.80
2017-11-21T13:42:18.024Z,8.90
2017-11-21T13:44:43.938Z,8.80
2017-11-21T13:47:10.596Z,8.80
2017-11-21T13:49:36.516Z,8.70
2017-11-21T13:52:02.503Z,8.80
2017-11-21T13:54:28.423Z,8.80
2017-11-21T13:56:54.557Z,8.80
2017-11-21T13:59:21.223Z,8.80
2017-11-21T14:01:47.760Z,8.70
2017-11-21T14:04:13.718Z,8.80
2017-11-21T14:06:39.612Z,8.80
2017-11-21T14:09:05.560Z,8.80
2017-11-21T14:11:31.514Z,8.90
2017-11-21T14:13:58.206Z,8.90
2017-11-21T14:16:24.104Z,8.80
2017-11-21T14:18:50.010Z,8.90
2017-11-21T14:21:15.934Z,9.00
2017-11-21T14:23:41.833Z,8.90
2017-11-21T14:26:07.730Z,8.90
2017-11-21T14:28:33.692Z,8.90
2017-11-21T14:30:59.639Z,8.90
2017-11-21T14:33:25.570Z,8.90
2017-11-21T14:35:51.504Z,9.00
2017-11-21T14:38:17.442Z,9.00
2017-11-21T14:40:43.385Z,9.00
2017-11-21T14:43:09.288Z,9.00
2017-11-21T14:45:35.240Z,9.00
2017-11-21T14:48:01.154Z,9.00
2017-11-21T14:50:27.103Z,9.00
2017-11-21T14:52:53.044Z,9.10
2017-11-21T14:55:18.983Z,9.10
2017-11-21T14:57:44.886Z,9.10
2017-11-21T15:00:10.788Z,9.10
2017-11-21T15:02:36.807Z,9.00
2017-11-21T15:05:02.757Z,9.00
2017-11-21T15:07:28.665Z,9.00
2017-11-21T15:09:54.600Z,9.00
2017-11-21T15:12:20.547Z,9.00
2017-11-21T15:14:47.172Z,9.00
2017-11-21T15:17:13.092Z,9.00
2017-11-21T15:19:39.009Z,9.00
2017-11-21T15:22:04.952Z,8.90
2017-11-21T15:24:30.868Z,8.90
2017-11-21T15:26:56.792Z,8.90
2017-11-21T15:29:22.800Z,8.90
2017-11-21T15:31:49.543Z,8.90
2017-11-21T15:34:15.481Z,8.80
2017-11-21T15:36:41.412Z,8.90
2017-11-21T15:39:07.347Z,8.90
2017-11-21T15:41:33.325Z,8.90
2017-11-21T15:44:00.065Z,8.90
2017-11-21T15:46:25.961Z,8.80
2017-11-21T15:48:51.887Z,8.90
2017-11-21T15:51:17.815Z,8.90
2017-11-21T15:53:43.751Z,8.90
2017-11-21T15:56:10.416Z,8.90
2017-11-21T15:58:36.400Z,8.80
2017-11-21T16:01:02.341Z,8.80
2017-11-21T16:03:29.093Z,8.80
2017-11-21T16:05:54.997Z,8.80
2017-11-21T16:08:20.933Z,8.80
2017-11-21T16:10:46.911Z,8.80
2017-11-21T16:13:12.865Z,8.70
2017-11-21T16:15:38.830Z,8.70
2017-11-21T16:18:04.794Z,8.70
2017-11-21T16:20:30.763Z,8.70
2017-11-21T16:22:56.690Z,8.70
2017-11-21T16:25:22.613Z,8.70
2017-11-21T16:27:48.513Z,8.70
2017-11-21T16:30:14.468Z,8.70
2017-11-21T16:32:40.403Z,8.70
2017-11-21T16:35:06.322Z,8.70
2017-11-21T16:37:32.280Z,8.70
2017-11-21T16:39:58.267Z,8.80
2017-11-21T16:42:24.214Z,8.70
2017-11-21T16:44:50.148Z,8.70
2017-11-21T16:47:16.114Z,8.70
2017-11-21T16:49:42.050Z,8.70
2017-11-21T16:52:07.977Z,8.70
2017-11-21T16:54:34.038Z,8.70
2017-11-21T16:57:00.929Z,8.70
2017-11-21T16:59:26.866Z,8.70
2017-11-21T17:01:52.824Z,8.70
2017-11-21T17:04:18.767Z,8.80
2017-11-21T17:06:45.436Z,8.70
2017-11-21T17:09:11.410Z,8.60
2017-11-21T17:11:38.427Z,8.70
2017-11-21T17:14:04.402Z,8.70
2017-11-21T17:16:30.346Z,8.70
2017-11-21T17:18:56.271Z,8.70
2017-11-21T17:21:22.259Z,8.70
2017-11-21T17:23:48.176Z,8.70
2017-11-21T17:26:14.097Z,8.70
2017-11-21T17:28:40.020Z,8.70
2017-11-21T17:31:05.952Z,8.70
2017-11-21T17:33:31.913Z,8.70
2017-11-21T17:35:58.565Z,8.70
2017-11-21T17:38:25.265Z,8.70
2017-11-21T17:40:51.161Z,8.70
2017-11-21T17:43:17.075Z,8.70
2017-11-21T17:45:43.001Z,8.80
2017-11-21T17:48:08.924Z,8.80
2017-11-21T17:50:34.961Z,8.70
2017-11-21T17:53:00.892Z,8.70
2017-11-21T17:55:26.839Z,8.70
2017-11-21T17:57:52.928Z,8.80
2017-11-21T18:00:18.868Z,8.70
2017-11-21T18:02:44.817Z,8.80
2017-11-21T18:05:10.737Z,8.80
2017-11-21T18:07:36.721Z,8.80
2017-11-21T18:10:02.692Z,8.80
2017-11-21T18:12:29.376Z,8.80
2017-11-21T18:14:55.299Z,8.80
2017-11-21T18:17:21.243Z,8.80
2017-11-21T18:19:47.175Z,8.80
2017-11-21T18:22:13.136Z,8.80
2017-11-21T18:24:39.094Z,8.80
2017-11-21T18:27:05.221Z,8.80
2017-11-21T18:29:31.192Z,8.80
2017-11-21T18:31:57.142Z,8.80
2017-11-21T18:34:23.083Z,8.90
2017-11-21T18:36:49.764Z,8.90
2017-11-21T18:39:15.687Z,8.80
2017-11-21T18:41:41.691Z,8.90
2017-11-21T18:44:07.678Z,8.90
2017-11-21T18:46:33.625Z,8.90
2017-11-21T18:48:59.584Z,8.90
2017-11-21T18:51:25.520Z,8.90
2017-11-21T18:53:51.560Z,8.90
2017-11-21T18:56:17.485Z,8.90
2017-11-21T18:58:44.196Z,8.80
2017-11-21T19:01:10.830Z,8.80
2017-11-21T19:03:36.798Z,8.80
2017-11-21T19:06:02.754Z,8.90
2017-11-21T19:08:28.661Z,8.80
2017-11-21T19:10:55.142Z,8.80
2017-11-21T19:13:21.103Z,8.90
2017-11-21T19:15:47.120Z,8.80
2017-11-21T19:18:13.060Z,8.80
2017-11-21T19:20:39.037Z,8.80
2017-11-21T19:23:05.772Z,8.90
2017-11-21T19:25:31.736Z,8.80
2017-11-21T19:27:57.654Z,8.90
2017-11-21T19:30:23.579Z,8.90
2017-11-21T19:32:49.500Z,8.90
2017-11-21T19:35:15.452Z,8.90
2017-11-21T19:37:41.423Z,8.80
2017-11-21T19:40:07.435Z,8.80
2017-11-21T19:42:33.390Z,8.80
2017-11-21T19:44:59.340Z,8.80
2017-11-21T19:47:25.240Z,8.80
2017-11-21T19:49:51.196Z,8.80
2017-11-21T19:52:17.123Z,8.70
2017-11-21T19:54:43.073Z,8.70
2017-11-21T19:57:09.611Z,8.70
2017-11-21T19:59:35.548Z,8.80
2017-11-21T20:02:01.500Z,8.80
2017-11-21T20:04:27.396Z,8.80
2017-11-21T20:06:54.052Z,8.80
2017-11-21T20:09:19.998Z,8.70
2017-11-21T20:11:45.957Z,8.80
2017-11-21T20:14:11.878Z,8.80
2017-11-21T20:16:37.868Z,8.80
2017-11-21T20:19:04.716Z,8.70
2017-11-21T20:21:30.684Z,8.80
2017-11-21T20:23:57.375Z,8.80
2017-11-21T20:26:24.040Z,8.80
2017-11-21T20:28:49.962Z,8.70
2017-11-21T20:31:16.600Z,8.70
2017-11-21T20:33:42.591Z,8.70
2017-11-21T20:36:09.232Z,8.60
2017-11-21T20:38:35.156Z,8.60
2017-11-21T20:41:01.896Z,8.60
2017-11-21T20:43:27.872Z,8.70
2017-11-21T20:45:53.805Z,8.60
2017-11-21T20:48:19.880Z,8.60
2017-11-21T20:50:45.801Z,8.60
2017-11-21T20:53:12.738Z,8.60
2017-11-21T20:55:38.665Z,8.60
2017-11-21T20:58:04.602Z,8.60
2017-11-21T21:00:30.545Z,8.60
2017-11-21T21:02:56.470Z,8.60
2017-11-21T21:05:22.382Z,8.60
2017-11-21T21:07:48.319Z,8.60
2017-11-21T21:10:14.357Z,8.60
2017-11-21T21:12:40.219Z,8.60
2017-11-21T21:15:06.175Z,8.60
2017-11-21T21:17:32.087Z,8.60
2017-11-21T21:19:58.016Z,8.60
2017-11-21T21:22:23.995Z,8.60
2017-11-21T21:24:49.910Z,8.60
2017-11-21T21:27:28.078Z,8.60
2017-11-21T21:29:54.000Z,8.60
2017-11-21T21:32:20.963Z,8.60
2017-11-21T21:34:47.639Z,8.60
2017-11-21T21:37:13.563Z,8.70
2017-11-21T21:39:39.525Z,8.60
2017-11-21T21:42:05.568Z,8.60
2017-11-21T21:44:31.514Z,8.60
2017-11-21T21:46:57.437Z,8.60
2017-11-21T21:49:23.354Z,8.60
2017-11-21T21:51:49.315Z,8.60
2017-11-21T21:54:15.257Z,8.60
2017-11-21T21:56:41.147Z,8.60
2017-11-21T21:59:07.071Z,8.60
2017-11-21T22:01:32.980Z,8.70
2017-11-21T22:03:58.961Z,8.60
2017-11-21T22:06:24.859Z,8.60
2017-11-21T22:08:50.788Z,8.70
2017-11-21T22:11:17.448Z,8.60
2017-11-21T22:13:43.390Z,8.60
2017-11-21T22:16:09.338Z,8.70
2017-11-21T22:18:35.401Z,8.70
2017-11-21T22:21:04.404Z,8.70
2017-11-21T22:23:30.360Z,8.60
2017-11-21T22:25:57.427Z,8.60
2017-11-21T22:28:23.364Z,8.60
2017-11-21T22:30:49.273Z,8.60
2017-11-21T22:33:16.216Z,8.60
2017-11-21T22:35:42.153Z,8.60
2017-11-21T22:38:08.821Z,8.60
2017-11-21T22:40:34.775Z,8.60
2017-11-21T22:43:00.686Z,8.60
2017-11-21T22:45:26.695Z,8.60
2017-11-21T22:47:52.640Z,8.60
2017-11-21T22:50:18.554Z,8.60
2017-11-21T22:52:44.484Z,8.60
2017-11-21T22:55:10.421Z,8.60
2017-11-21T22:57:36.331Z,8.60
2017-11-21T23:00:02.238Z,8.60
2017-11-21T23:02:28.174Z,8.60
2017-11-21T23:04:54.078Z,8.60
2017-11-21T23:07:20.807Z,8.60
2017-11-21T23:09:46.692Z,8.60
2017-11-21T23:12:12.621Z,8.60
2017-11-21T23:14:38.576Z,8.60
2017-11-21T23:17:04.524Z,8.60
2017-11-21T23:19:30.560Z,8.60
2017-11-21T23:21:57.271Z,8.60
2017-11-21T23:24:23.313Z,8.60
2017-11-21T23:26:49.841Z,8.60
2017-11-21T23:29:15.782Z,8.60
2017-11-21T23:31:42.437Z,8.60
2017-11-21T23:34:08.389Z,8.60
2017-11-21T23:36:34.335Z,8.60
2017-11-21T23:39:00.291Z,8.60
2017-11-21T23:41:26.259Z,8.60
2017-11-21T23:43:52.228Z,8.60
2017-11-21T23:46:18.937Z,8.60
2017-11-21T23:48:44.855Z,8.60
2017-11-21T23:51:10.757Z,8.70
2017-11-21T23:53:36.713Z,8.70
2017-11-21T23:56:02.670Z,8.60
2017-11-21T23:58:28.600Z,8.70
